sensor_id;sensor_type;location;lat;lon;timestamp;P1;durP1;ratioP1;P2;durP2;ratioP2
61739;SDS011;47645;45.288;12.038;2023-04-03T00:03:32;13.2;;;8.5;;
61739;SDS011;47645;45.288;12.038;2023-04-03T00:13:32;12.0;;;7.6;;
61739;SDS011;47645;45.288;12.038;2023-04-03T00:23:33;11.2;;;7.1;;
61739;SDS011;47645;45.288;12.038;2023-04-03T00:33:33;9.7;;;6.8;;
61739;SDS011;47645;45.288;12.038;2023-04-03T00:43:35;12.4;;;6.0;;
61739;SDS011;47645;45.288;12.038;2023-04-03T00:53:37;10.4;;;6.5;;
61739;SDS011;47645;45.288;12.038;2023-04-03T01:03:36;8.9;;;5.7;;
61739;SDS011;47645;45.288;12.038;2023-04-03T01:13:36;13.1;;;6.9;;
61739;SDS011;47645;45.288;12.038;2023-04-03T01:23:40;10.6;;;6.1;;
61739;SDS011;47645;45.288;12.038;2023-04-03T01:33:38;12.4;;;6.1;;
61739;SDS011;47645;45.288;12.038;2023-04-03T01:43:38;11.9;;;6.1;;
61739;SDS011;47645;45.288;12.038;2023-04-03T01:53:39;9.8;;;5.4;;
61739;SDS011;47645;45.288;12.038;2023-04-03T02:03:39;8.3;;;5.3;;
61739;SDS011;47645;45.288;12.038;2023-04-03T02:13:40;9.1;;;5.5;;
61739;SDS011;47645;45.288;12.038;2023-04-03T02:23:41;8.6;;;4.8;;
61739;SDS011;47645;45.288;12.038;2023-04-03T02:33:41;6.9;;;4.0;;
61739;SDS011;47645;45.288;12.038;2023-04-03T02:43:42;6.1;;;3.9;;
61739;SDS011;47645;45.288;12.038;2023-04-03T02:53:43;8.9;;;3.6;;
61739;SDS011;47645;45.288;12.038;2023-04-03T03:03:43;3.0;;;1.5;;
61739;SDS011;47645;45.288;12.038;2023-04-03T03:13:44;2.6;;;1.1;;
61739;SDS011;47645;45.288;12.038;2023-04-03T03:23:44;5.2;;;1.6;;
61739;SDS011;47645;45.288;12.038;2023-04-03T03:33:45;2.9;;;1.0;;
61739;SDS011;47645;45.288;12.038;2023-04-03T03:43:46;3.9;;;0.9;;
61739;SDS011;47645;45.288;12.038;2023-04-03T03:53:46;2.5;;;0.9;;
61739;SDS011;47645;45.288;12.038;2023-04-03T04:03:47;2.4;;;0.8;;
61739;SDS011;47645;45.288;12.038;2023-04-03T04:13:48;1.9;;;1.0;;
61739;SDS011;47645;45.288;12.038;2023-04-03T04:23:48;2.7;;;0.6;;
61739;SDS011;47645;45.288;12.038;2023-04-03T04:33:49;2.3;;;0.9;;
61739;SDS011;47645;45.288;12.038;2023-04-03T04:43:50;3.9;;;1.3;;
61739;SDS011;47645;45.288;12.038;2023-04-03T04:53:50;3.9;;;1.3;;
61739;SDS011;47645;45.288;12.038;2023-04-03T05:03:51;2.7;;;0.9;;
61739;SDS011;47645;45.288;12.038;2023-04-03T05:13:51;4.0;;;1.1;;
61739;SDS011;47645;45.288;12.038;2023-04-03T05:23:52;4.3;;;1.2;;
61739;SDS011;47645;45.288;12.038;2023-04-03T05:33:53;6.0;;;1.4;;
61739;SDS011;47645;45.288;12.038;2023-04-03T05:43:53;7.0;;;1.4;;
61739;SDS011;47645;45.288;12.038;2023-04-03T05:53:56;2.3;;;1.1;;
61739;SDS011;47645;45.288;12.038;2023-04-03T06:03:55;5.8;;;1.3;;
61739;SDS011;47645;45.288;12.038;2023-04-03T06:13:55;2.6;;;1.2;;
61739;SDS011;47645;45.288;12.038;2023-04-03T06:23:56;5.3;;;1.8;;
61739;SDS011;47645;45.288;12.038;2023-04-03T06:33:57;3.7;;;1.3;;
61739;SDS011;47645;45.288;12.038;2023-04-03T06:43:58;2.8;;;1.2;;
61739;SDS011;47645;45.288;12.038;2023-04-03T06:53:58;5.7;;;1.6;;
61739;SDS011;47645;45.288;12.038;2023-04-03T07:03:59;3.8;;;1.1;;
61739;SDS011;47645;45.288;12.038;2023-04-03T07:13:59;3.5;;;1.0;;
61739;SDS011;47645;45.288;12.038;2023-04-03T07:24:00;5.9;;;1.4;;
61739;SDS011;47645;45.288;12.038;2023-04-03T07:34:01;4.6;;;1.2;;
61739;SDS011;47645;45.288;12.038;2023-04-03T07:44:02;6.8;;;1.6;;
61739;SDS011;47645;45.288;12.038;2023-04-03T07:54:02;7.0;;;1.3;;
61739;SDS011;47645;45.288;12.038;2023-04-03T08:04:03;3.6;;;1.4;;
61739;SDS011;47645;45.288;12.038;2023-04-03T08:14:03;3.3;;;1.3;;
61739;SDS011;47645;45.288;12.038;2023-04-03T08:24:04;4.4;;;1.6;;
61739;SDS011;47645;45.288;12.038;2023-04-03T08:34:05;4.0;;;1.3;;
61739;SDS011;47645;45.288;12.038;2023-04-03T08:44:13;3.4;;;1.0;;
61739;SDS011;47645;45.288;12.038;2023-04-03T08:54:16;4.3;;;1.6;;
61739;SDS011;47645;45.288;12.038;2023-04-03T09:04:09;5.2;;;1.4;;
61739;SDS011;47645;45.288;12.038;2023-04-03T09:14:09;4.3;;;1.3;;
61739;SDS011;47645;45.288;12.038;2023-04-03T09:24:09;6.0;;;1.6;;
61739;SDS011;47645;45.288;12.038;2023-04-03T09:34:12;4.6;;;1.4;;
61739;SDS011;47645;45.288;12.038;2023-04-03T09:44:19;7.7;;;1.7;;
61739;SDS011;47645;45.288;12.038;2023-04-03T09:54:23;4.8;;;1.7;;
61739;SDS011;47645;45.288;12.038;2023-04-03T10:04:12;3.6;;;1.3;;
61739;SDS011;47645;45.288;12.038;2023-04-03T10:14:16;5.4;;;1.4;;
61739;SDS011;47645;45.288;12.038;2023-04-03T10:24:16;4.8;;;1.4;;
61739;SDS011;47645;45.288;12.038;2023-04-03T10:34:17;4.8;;;1.3;;
61739;SDS011;47645;45.288;12.038;2023-04-03T10:44:18;4.3;;;1.1;;
61739;SDS011;47645;45.288;12.038;2023-04-03T10:54:17;5.1;;;1.2;;
61739;SDS011;47645;45.288;12.038;2023-04-03T11:04:17;5.2;;;1.3;;
61739;SDS011;47645;45.288;12.038;2023-04-03T11:14:21;5.5;;;1.4;;
61739;SDS011;47645;45.288;12.038;2023-04-03T11:24:22;7.0;;;1.2;;
61739;SDS011;47645;45.288;12.038;2023-04-03T11:34:24;5.5;;;1.1;;
61739;SDS011;47645;45.288;12.038;2023-04-03T11:44:38;4.2;;;1.2;;
61739;SDS011;47645;45.288;12.038;2023-04-03T11:54:54;4.8;;;1.4;;
61739;SDS011;47645;45.288;12.038;2023-04-03T12:04:24;5.1;;;0.9;;
61739;SDS011;47645;45.288;12.038;2023-04-03T12:14:26;4.7;;;1.1;;
61739;SDS011;47645;45.288;12.038;2023-04-03T12:24:27;2.7;;;1.2;;
61739;SDS011;47645;45.288;12.038;2023-04-03T12:34:34;3.7;;;1.1;;
61739;SDS011;47645;45.288;12.038;2023-04-03T12:44:33;4.8;;;1.3;;
61739;SDS011;47645;45.288;12.038;2023-04-03T12:54:30;3.0;;;0.9;;
61739;SDS011;47645;45.288;12.038;2023-04-03T13:04:31;5.9;;;1.2;;
61739;SDS011;47645;45.288;12.038;2023-04-03T13:14:32;6.1;;;1.2;;
61739;SDS011;47645;45.288;12.038;2023-04-03T13:24:35;3.3;;;1.0;;
61739;SDS011;47645;45.288;12.038;2023-04-03T13:34:36;4.7;;;1.1;;
61739;SDS011;47645;45.288;12.038;2023-04-03T13:44:36;3.2;;;1.1;;
61739;SDS011;47645;45.288;12.038;2023-04-03T13:54:37;5.0;;;1.3;;
61739;SDS011;47645;45.288;12.038;2023-04-03T14:04:44;4.3;;;1.4;;
61739;SDS011;47645;45.288;12.038;2023-04-03T14:14:39;3.6;;;1.0;;
61739;SDS011;47645;45.288;12.038;2023-04-03T14:24:40;3.9;;;1.0;;
61739;SDS011;47645;45.288;12.038;2023-04-03T14:34:41;3.9;;;1.0;;
61739;SDS011;47645;45.288;12.038;2023-04-03T14:44:43;2.9;;;1.0;;
61739;SDS011;47645;45.288;12.038;2023-04-03T14:54:44;5.5;;;1.2;;
61739;SDS011;47645;45.288;12.038;2023-04-03T15:04:45;4.1;;;1.0;;
61739;SDS011;47645;45.288;12.038;2023-04-03T15:14:45;3.0;;;1.0;;
61739;SDS011;47645;45.288;12.038;2023-04-03T15:24:47;4.0;;;1.0;;
61739;SDS011;47645;45.288;12.038;2023-04-03T15:34:48;2.7;;;0.9;;
61739;SDS011;47645;45.288;12.038;2023-04-03T15:44:49;2.7;;;1.0;;
61739;SDS011;47645;45.288;12.038;2023-04-03T15:54:50;6.9;;;0.9;;
61739;SDS011;47645;45.288;12.038;2023-04-03T16:04:51;4.9;;;1.0;;
61739;SDS011;47645;45.288;12.038;2023-04-03T16:14:55;4.3;;;1.6;;
61739;SDS011;47645;45.288;12.038;2023-04-03T16:24:54;2.8;;;1.2;;
61739;SDS011;47645;45.288;12.038;2023-04-03T16:34:54;3.2;;;1.4;;
61739;SDS011;47645;45.288;12.038;2023-04-03T16:44:55;2.4;;;0.9;;
61739;SDS011;47645;45.288;12.038;2023-04-03T16:54:59;4.0;;;1.0;;
61739;SDS011;47645;45.288;12.038;2023-04-03T17:04:57;1.9;;;0.9;;
61739;SDS011;47645;45.288;12.038;2023-04-03T17:14:58;3.6;;;1.2;;
61739;SDS011;47645;45.288;12.038;2023-04-03T17:24:59;3.7;;;1.4;;
61739;SDS011;47645;45.288;12.038;2023-04-03T17:35:00;2.3;;;1.0;;
61739;SDS011;47645;45.288;12.038;2023-04-03T17:45:01;2.9;;;1.1;;
61739;SDS011;47645;45.288;12.038;2023-04-03T17:55:03;6.2;;;1.3;;
61739;SDS011;47645;45.288;12.038;2023-04-03T18:05:02;3.5;;;1.4;;
61739;SDS011;47645;45.288;12.038;2023-04-03T18:10:04;3.8;;;1.4;;
61739;SDS011;47645;45.288;12.038;2023-04-03T18:20:04;6.2;;;2.0;;
61739;SDS011;47645;45.288;12.038;2023-04-03T18:30:06;4.7;;;1.5;;
61739;SDS011;47645;45.288;12.038;2023-04-03T18:40:06;3.0;;;1.4;;
61739;SDS011;47645;45.288;12.038;2023-04-03T18:50:07;4.0;;;1.5;;
61739;SDS011;47645;45.288;12.038;2023-04-03T19:00:08;2.5;;;1.3;;
61739;SDS011;47645;45.288;12.038;2023-04-03T19:10:08;4.0;;;1.2;;
61739;SDS011;47645;45.288;12.038;2023-04-03T19:20:09;2.2;;;1.1;;
61739;SDS011;47645;45.288;12.038;2023-04-03T19:30:10;3.6;;;1.2;;
61739;SDS011;47645;45.288;12.038;2023-04-03T19:40:10;2.4;;;1.3;;
61739;SDS011;47645;45.288;12.038;2023-04-03T19:50:10;3.5;;;1.3;;
61739;SDS011;47645;45.288;12.038;2023-04-03T20:00:13;7.1;;;1.4;;
61739;SDS011;47645;45.288;12.038;2023-04-03T20:10:12;3.6;;;1.4;;
61739;SDS011;47645;45.288;12.038;2023-04-03T20:20:14;3.7;;;1.2;;
61739;SDS011;47645;45.288;12.038;2023-04-03T20:30:14;3.1;;;1.3;;
61739;SDS011;47645;45.288;12.038;2023-04-03T20:40:15;3.8;;;1.4;;
61739;SDS011;47645;45.288;12.038;2023-04-03T20:50:15;3.2;;;1.3;;
61739;SDS011;47645;45.288;12.038;2023-04-03T21:00:19;5.0;;;1.2;;
61739;SDS011;47645;45.288;12.038;2023-04-03T21:20:17;4.0;;;1.6;;
61739;SDS011;47645;45.288;12.038;2023-04-03T21:30:19;5.1;;;1.7;;
61739;SDS011;47645;45.288;12.038;2023-04-03T21:40:19;4.9;;;1.5;;
61739;SDS011;47645;45.288;12.038;2023-04-03T21:50:21;4.0;;;1.3;;
61739;SDS011;47645;45.288;12.038;2023-04-03T22:00:21;4.6;;;1.6;;
61739;SDS011;47645;45.288;12.038;2023-04-03T22:10:21;6.0;;;1.8;;
61739;SDS011;47645;45.288;12.038;2023-04-03T22:20:21;6.3;;;1.9;;
61739;SDS011;47645;45.288;12.038;2023-04-03T22:30:22;5.6;;;1.7;;
61739;SDS011;47645;45.288;12.038;2023-04-03T22:40:23;7.1;;;1.9;;
61739;SDS011;47645;45.288;12.038;2023-04-03T22:50:24;4.6;;;1.6;;
61739;SDS011;47645;45.288;12.038;2023-04-03T23:00:27;7.4;;;2.0;;
61739;SDS011;47645;45.288;12.038;2023-04-03T23:10:25;4.2;;;1.5;;
61739;SDS011;47645;45.288;12.038;2023-04-03T23:20:25;4.1;;;1.6;;
61739;SDS011;47645;45.288;12.038;2023-04-03T23:30:26;5.0;;;1.6;;
61739;SDS011;47645;45.288;12.038;2023-04-03T23:40:27;5.2;;;1.9;;
61739;SDS011;47645;45.288;12.038;2023-04-03T23:50:28;4.6;;;1.7;;
